Timber Mountain, Nevada Weather observations

Data are for 10 minute period ending at time listed.
 Day   Time   Solar   Ave.   Ave.  Ave.  Vector  Max.   Baro.   Total    
  of    of     Rad.   Air    Rel.  Wind   Wind   Wind  Press.  Precip.   
Year   Day            Temp.  Hum.  Speed  Dir.   Gust                    
2014   (PST)  Kw/m2    F      %     mph   deg.    mph    mb.     in.     
-------------------------------------------------------------------------
 295    0:00   0.00   46.1    22    3.4   108     5.3   810.8    0.00 
 295    1:00   0.00   47.2    21    2.1   164     6.1   810.9    0.00 
 295    2:00   0.00   49.1    16    2.6   131     5.3   811.0    0.00 
 295    3:00   0.00   46.5    18    3.1    99     7.0   811.1    0.00 
 295    4:00   0.00   47.4    17    4.1    96     8.2   811.4    0.00 
 295    5:00   0.00   46.7    19    3.4    98     7.8   811.8    0.00 
 295    6:00   0.00   48.2    18    3.7   101     7.7   812.4    0.00 
 295    7:00   0.06   50.6    17    4.1   108     6.1   813.0    0.00 
 295    8:00   0.28   61.3    13    2.7   129     8.2   813.7    0.00 
 295    9:00   0.46   62.9    12    5.5   126     9.8   814.1    0.00 
 295   10:00   0.57   65.7    12    3.8   111     8.6   814.2    0.00 
 295   11:00   0.69   66.8    12    6.3   232    13.0   814.2    0.00 
 295   12:00   0.74   68.4    12    6.5   246    12.9   814.0    0.00 
 295   13:00   0.64   68.9    12    5.8   237    11.4   813.6    0.00 
 295   14:00   0.61   68.7    12    6.0   231    12.2   813.6    0.00 
 295   15:00   0.45   68.6    12    6.3   233    13.5   813.6    0.00 
 295   16:00   0.16   65.5    13    5.9   231    11.5   813.5    0.00 
 295   17:00   0.05   62.2    15    5.1   228    11.2   813.7    0.00 
 295   18:00   0.00   55.9    18    2.4   133     7.7   814.1    0.00 
 295   19:00   0.00   53.1    21    4.1   107     7.5   814.2    0.00 
 295   20:00   0.00   51.9    22    6.1   115     9.3   814.5    0.00 
 295   21:00   0.00   52.2    23    4.8   103    11.2   814.8    0.00 
 295   22:00   0.00   57.4    18    5.7   112    12.1   814.9    0.00 

Return to Timber Mountain graphs page.


Western Regional Climate Center,wrcc@dri.edu